createdAt,value
2022-07-26T00:00:21.148Z,23.80
2022-07-26T00:03:18.610Z,23.80
2022-07-26T00:06:16.044Z,23.80
2022-07-26T00:09:16.358Z,23.80
2022-07-26T00:12:13.843Z,23.80
2022-07-26T00:15:11.294Z,23.80
2022-07-26T00:18:12.022Z,23.78
2022-07-26T00:21:09.983Z,23.74
2022-07-26T00:24:09.249Z,23.72
2022-07-26T00:27:06.719Z,23.76
2022-07-26T00:30:04.204Z,23.78
2022-07-26T00:33:01.688Z,23.80
2022-07-26T00:35:59.160Z,23.80
2022-07-26T00:38:56.605Z,23.80
2022-07-26T00:41:54.062Z,23.80
2022-07-26T00:44:51.524Z,23.74
2022-07-26T00:47:48.969Z,23.72
2022-07-26T00:50:46.451Z,23.76
2022-07-26T00:53:43.910Z,23.80
2022-07-26T00:56:41.423Z,23.80
2022-07-26T00:59:38.889Z,23.90
2022-07-26T01:02:36.361Z,24.20
2022-07-26T01:05:33.970Z,24.50
2022-07-26T01:08:31.421Z,24.70
2022-07-26T01:11:28.869Z,24.90
2022-07-26T01:14:26.350Z,25.00
2022-07-26T01:17:23.904Z,25.10
2022-07-26T01:20:21.378Z,25.10
2022-07-26T01:23:18.854Z,25.04
2022-07-26T01:26:16.304Z,25.00
2022-07-26T01:29:13.793Z,24.80
2022-07-26T01:32:11.266Z,24.64
2022-07-26T01:35:08.746Z,24.50
2022-07-26T01:38:06.257Z,24.30
2022-07-26T01:41:03.706Z,24.20
2022-07-26T01:44:01.152Z,24.00
2022-07-26T01:46:58.597Z,23.90
2022-07-26T01:49:56.081Z,23.80
2022-07-26T01:52:53.555Z,23.74
2022-07-26T01:55:51.010Z,23.68
2022-07-26T01:58:48.460Z,23.60
2022-07-26T02:01:45.932Z,23.50
2022-07-26T02:05:02.125Z,23.50
2022-07-26T02:07:59.594Z,23.40
2022-07-26T02:11:04.007Z,23.40
2022-07-26T02:14:01.743Z,23.30
2022-07-26T02:17:00.811Z,23.10
2022-07-26T02:19:58.285Z,22.90
2022-07-26T02:22:55.738Z,22.72
2022-07-26T02:25:53.179Z,22.54
2022-07-26T02:28:50.661Z,22.40
2022-07-26T02:31:48.407Z,22.20
2022-07-26T02:34:46.836Z,22.02
2022-07-26T02:37:44.335Z,21.90
2022-07-26T02:40:41.805Z,21.70
2022-07-26T02:43:39.267Z,21.60
2022-07-26T02:46:37.583Z,21.50
2022-07-26T02:49:35.114Z,21.40
2022-07-26T02:52:32.554Z,21.40
2022-07-26T02:55:30.036Z,21.30
2022-07-26T02:58:28.166Z,21.20
2022-07-26T03:01:25.743Z,21.20
2022-07-26T03:04:23.729Z,21.10
2022-07-26T03:07:21.197Z,21.10
2022-07-26T03:10:18.648Z,21.00
2022-07-26T03:13:16.442Z,21.00
2022-07-26T03:16:14.000Z,20.90
2022-07-26T03:19:11.574Z,20.90
2022-07-26T03:22:09.070Z,20.86
2022-07-26T03:25:06.680Z,20.80
2022-07-26T03:28:04.117Z,20.80
2022-07-26T03:31:01.679Z,20.80
2022-07-26T03:34:03.095Z,20.80
2022-07-26T03:37:00.961Z,20.70
2022-07-26T03:39:58.440Z,20.70
2022-07-26T03:42:57.271Z,20.70
2022-07-26T03:45:54.874Z,20.70
2022-07-26T03:48:52.537Z,20.70
2022-07-26T03:51:50.045Z,20.60
2022-07-26T03:54:47.498Z,20.60
2022-07-26T03:57:44.962Z,20.60
2022-07-26T04:00:42.428Z,20.60
2022-07-26T04:03:42.197Z,20.60
2022-07-26T04:06:44.951Z,20.50
2022-07-26T04:09:42.375Z,20.50
2022-07-26T04:12:39.873Z,20.50
2022-07-26T04:15:37.348Z,20.50
2022-07-26T04:18:34.804Z,20.50
2022-07-26T04:21:32.241Z,20.50
2022-07-26T04:24:29.701Z,20.50
2022-07-26T04:27:27.183Z,20.50
2022-07-26T04:30:27.304Z,20.50
2022-07-26T04:33:24.929Z,20.50
2022-07-26T04:36:22.384Z,20.50
2022-07-26T04:39:24.601Z,20.50
2022-07-26T04:42:22.056Z,20.50
2022-07-26T04:45:19.503Z,20.50
2022-07-26T04:48:16.988Z,20.50
2022-07-26T04:51:14.452Z,20.50
2022-07-26T04:54:12.003Z,20.60
2022-07-26T04:57:09.501Z,20.60
2022-07-26T05:00:23.300Z,20.60
2022-07-26T05:03:25.227Z,20.60
2022-07-26T05:06:22.831Z,20.60
2022-07-26T05:09:21.562Z,20.54
2022-07-26T05:12:19.041Z,20.50
2022-07-26T05:15:16.501Z,20.50
2022-07-26T05:18:13.961Z,20.44
2022-07-26T05:21:11.724Z,20.40
2022-07-26T05:24:09.569Z,20.40
2022-07-26T05:27:07.488Z,20.30
2022-07-26T05:30:04.925Z,20.30
2022-07-26T05:33:02.385Z,20.30
2022-07-26T05:35:59.851Z,20.22
2022-07-26T05:38:57.299Z,20.20
2022-07-26T05:41:54.756Z,20.20
2022-07-26T05:44:52.189Z,20.20
2022-07-26T05:47:49.958Z,20.18
2022-07-26T05:50:47.415Z,20.14
2022-07-26T05:53:47.477Z,20.14
2022-07-26T05:56:44.931Z,20.10
2022-07-26T05:59:42.360Z,20.10
2022-07-26T06:02:39.828Z,20.10
2022-07-26T06:05:37.343Z,20.10
2022-07-26T06:08:34.795Z,20.10
2022-07-26T06:11:32.317Z,20.10
2022-07-26T06:14:29.769Z,20.10
2022-07-26T06:17:30.480Z,20.06
2022-07-26T06:20:28.073Z,20.04
2022-07-26T06:23:33.821Z,20.08
2022-07-26T06:26:32.630Z,20.10
2022-07-26T06:29:32.369Z,20.10
2022-07-26T06:32:30.203Z,20.10
2022-07-26T06:35:31.107Z,20.10
2022-07-26T06:38:28.610Z,20.16
2022-07-26T06:41:26.076Z,20.20
2022-07-26T06:44:23.941Z,20.20
2022-07-26T06:47:21.435Z,20.22
2022-07-26T06:50:20.838Z,20.30
2022-07-26T06:53:23.240Z,20.30
2022-07-26T06:56:20.686Z,20.30
2022-07-26T06:59:21.477Z,20.40
2022-07-26T07:02:18.970Z,20.40
2022-07-26T07:05:16.607Z,20.50
2022-07-26T07:08:14.159Z,20.58
2022-07-26T07:11:11.914Z,20.70
2022-07-26T07:14:10.018Z,20.80
2022-07-26T07:17:11.080Z,20.90
2022-07-26T07:20:11.562Z,21.00
2022-07-26T07:23:09.189Z,21.10
2022-07-26T07:26:06.673Z,21.20
2022-07-26T07:29:04.369Z,21.30
2022-07-26T07:32:03.437Z,21.28
2022-07-26T07:35:01.285Z,21.20
2022-07-26T07:37:58.762Z,21.20
2022-07-26T07:40:56.243Z,21.20
2022-07-26T07:43:53.730Z,21.20
2022-07-26T07:46:51.234Z,21.30
2022-07-26T07:49:48.786Z,21.30
2022-07-26T07:52:46.248Z,21.20
2022-07-26T07:55:46.269Z,21.20
2022-07-26T07:58:44.393Z,21.20
2022-07-26T08:01:42.530Z,21.12
2022-07-26T08:04:42.749Z,21.10
2022-07-26T08:07:40.194Z,21.10
2022-07-26T08:10:41.739Z,21.10
2022-07-26T08:13:49.162Z,21.10
2022-07-26T08:16:46.815Z,21.10
2022-07-26T08:19:44.476Z,21.10
2022-07-26T08:22:41.947Z,21.10
2022-07-26T08:25:50.099Z,21.10
2022-07-26T08:28:58.315Z,21.10
2022-07-26T08:31:57.747Z,21.10
2022-07-26T08:34:55.265Z,21.10
2022-07-26T08:38:12.664Z,21.00
2022-07-26T08:41:10.148Z,21.00
2022-07-26T08:44:07.607Z,21.00
2022-07-26T08:47:05.166Z,21.00
2022-07-26T08:50:02.707Z,21.00
2022-07-26T08:53:00.175Z,21.00
2022-07-26T08:56:07.026Z,21.06
2022-07-26T08:59:05.208Z,21.10
2022-07-26T09:02:02.961Z,21.10
2022-07-26T09:05:00.402Z,21.18
2022-07-26T09:07:57.889Z,21.20
2022-07-26T09:10:55.705Z,21.14
2022-07-26T09:13:53.199Z,21.20
2022-07-26T09:16:50.806Z,21.20
2022-07-26T09:19:48.316Z,21.30
2022-07-26T09:22:45.816Z,21.30
2022-07-26T09:25:43.369Z,21.40
2022-07-26T09:28:45.015Z,21.40
2022-07-26T09:31:44.643Z,21.50
2022-07-26T09:34:52.079Z,21.50
2022-07-26T09:37:50.426Z,21.60
2022-07-26T09:40:51.324Z,21.70
2022-07-26T09:43:53.650Z,21.80
2022-07-26T09:46:51.841Z,21.88
2022-07-26T09:49:49.476Z,21.90
2022-07-26T09:52:46.995Z,22.00
2022-07-26T09:55:45.162Z,22.10
2022-07-26T09:58:42.886Z,22.20
2022-07-26T10:01:40.427Z,22.30
2022-07-26T10:04:37.890Z,22.40
2022-07-26T10:07:35.363Z,22.50
2022-07-26T10:10:32.834Z,22.60
2022-07-26T10:13:30.530Z,22.74
2022-07-26T10:16:28.148Z,22.90
2022-07-26T10:19:26.963Z,23.00
2022-07-26T10:22:30.661Z,23.10
2022-07-26T10:25:28.152Z,23.22
2022-07-26T10:28:26.823Z,23.40
2022-07-26T10:31:24.421Z,23.50
2022-07-26T10:34:21.990Z,23.66
2022-07-26T10:37:19.461Z,23.80
2022-07-26T10:40:16.930Z,23.90
2022-07-26T10:43:39.515Z,24.00
2022-07-26T10:46:32.202Z,24.10
2022-07-26T10:49:29.723Z,24.20
2022-07-26T10:52:27.509Z,24.30
2022-07-26T10:55:24.967Z,24.40
2022-07-26T10:58:22.455Z,24.52
2022-07-26T11:01:20.004Z,24.70
2022-07-26T11:04:17.504Z,24.82
2022-07-26T11:07:14.957Z,25.02
2022-07-26T11:10:12.450Z,25.20
2022-07-26T11:13:09.922Z,25.42
2022-07-26T11:16:07.469Z,25.60
2022-07-26T11:19:04.993Z,25.80
2022-07-26T11:22:02.455Z,26.00
2022-07-26T11:24:59.971Z,26.20
2022-07-26T11:27:57.457Z,26.40
2022-07-26T11:30:56.096Z,26.56
2022-07-26T11:33:53.681Z,26.70
2022-07-26T11:36:51.212Z,26.80
2022-07-26T11:39:48.706Z,26.90
2022-07-26T11:42:46.166Z,27.08
2022-07-26T11:45:43.641Z,27.40
2022-07-26T11:48:41.240Z,27.80
2022-07-26T11:51:38.766Z,28.14
2022-07-26T11:54:36.619Z,28.54
2022-07-26T11:57:34.194Z,28.70
2022-07-26T12:00:31.673Z,28.60
2022-07-26T12:03:29.782Z,28.70
2022-07-26T12:06:27.489Z,28.70
2022-07-26T12:09:24.981Z,28.96
2022-07-26T12:12:23.640Z,29.40
2022-07-26T12:15:21.130Z,29.80
2022-07-26T12:18:18.574Z,30.08
2022-07-26T12:21:16.051Z,30.46
2022-07-26T12:24:13.855Z,30.74
2022-07-26T12:27:11.522Z,31.00
2022-07-26T12:30:09.022Z,31.30
2022-07-26T12:33:06.534Z,31.30
2022-07-26T12:36:04.021Z,31.44
2022-07-26T12:39:01.519Z,31.64
2022-07-26T12:41:59.042Z,31.70
2022-07-26T12:44:56.533Z,31.60
2022-07-26T12:47:54.022Z,31.40
2022-07-26T12:50:51.490Z,31.10
2022-07-26T12:53:48.948Z,30.42
2022-07-26T12:56:46.578Z,29.66
2022-07-26T12:59:46.309Z,28.82
2022-07-26T13:02:43.794Z,28.22
2022-07-26T13:05:41.274Z,27.70
2022-07-26T13:08:38.764Z,27.32
2022-07-26T13:11:36.256Z,26.80
2022-07-26T13:14:33.735Z,26.26
2022-07-26T13:17:31.211Z,25.76
2022-07-26T13:20:28.710Z,25.34
2022-07-26T13:23:26.825Z,25.00
2022-07-26T13:26:24.521Z,24.70
2022-07-26T13:29:22.373Z,24.50
2022-07-26T13:32:19.967Z,24.30
2022-07-26T13:35:17.915Z,24.20
2022-07-26T13:38:15.397Z,24.00
2022-07-26T13:41:12.868Z,23.90
2022-07-26T13:44:10.497Z,23.70
2022-07-26T13:47:09.308Z,23.60
2022-07-26T13:50:08.465Z,23.46
2022-07-26T13:53:05.923Z,23.30
2022-07-26T13:56:03.393Z,23.20
2022-07-26T13:59:00.829Z,23.10
2022-07-26T14:01:58.450Z,23.00
2022-07-26T14:04:56.118Z,22.90
2022-07-26T14:07:53.572Z,22.90
2022-07-26T14:10:51.046Z,22.80
2022-07-26T14:13:48.538Z,22.72
2022-07-26T14:16:49.353Z,22.70
2022-07-26T14:19:47.096Z,22.62
2022-07-26T14:22:44.590Z,22.60
2022-07-26T14:25:42.285Z,22.50
2022-07-26T14:28:39.767Z,22.50
2022-07-26T14:31:37.277Z,22.40
2022-07-26T14:34:34.774Z,22.40
2022-07-26T14:37:42.402Z,22.36
2022-07-26T14:40:42.234Z,22.28
2022-07-26T14:43:39.731Z,22.20
2022-07-26T14:46:37.210Z,22.10
2022-07-26T14:49:34.784Z,22.10
2022-07-26T14:52:32.330Z,22.00
2022-07-26T14:55:29.922Z,22.00
2022-07-26T14:58:27.434Z,21.90
2022-07-26T15:01:24.952Z,21.90
2022-07-26T15:04:24.878Z,21.84
2022-07-26T15:07:22.383Z,21.90
2022-07-26T15:10:29.295Z,21.80
2022-07-26T15:13:26.784Z,21.78
2022-07-26T15:16:24.345Z,21.68
2022-07-26T15:19:25.688Z,21.54
2022-07-26T15:22:23.621Z,21.40
2022-07-26T15:25:21.128Z,21.32
2022-07-26T15:28:18.625Z,21.20
2022-07-26T15:31:16.240Z,21.20
2022-07-26T15:34:14.129Z,21.18
2022-07-26T15:37:11.834Z,21.10
2022-07-26T15:40:09.336Z,21.00
2022-07-26T15:43:06.827Z,21.00
2022-07-26T15:46:04.750Z,21.00
2022-07-26T15:49:02.972Z,21.00
2022-07-26T15:52:00.557Z,20.94
2022-07-26T15:54:58.071Z,20.90
2022-07-26T15:57:55.544Z,20.90
2022-07-26T16:00:53.023Z,20.90
2022-07-26T16:03:50.498Z,20.90
2022-07-26T16:06:48.255Z,20.90
2022-07-26T16:09:45.750Z,20.80
2022-07-26T16:12:43.253Z,20.80
2022-07-26T16:15:40.830Z,20.80
2022-07-26T16:18:41.829Z,20.80
2022-07-26T16:21:40.623Z,20.70
2022-07-26T16:24:38.118Z,20.70
2022-07-26T16:27:35.628Z,20.70
2022-07-26T16:30:33.144Z,20.70
2022-07-26T16:33:30.768Z,20.70
2022-07-26T16:36:30.458Z,20.66
2022-07-26T16:39:27.990Z,20.60
2022-07-26T16:42:25.502Z,20.60
2022-07-26T16:45:23.000Z,20.70
2022-07-26T16:48:20.527Z,20.90
2022-07-26T16:51:18.018Z,21.04
2022-07-26T16:54:15.492Z,21.20
2022-07-26T16:57:12.952Z,21.30
2022-07-26T17:00:10.875Z,21.30
2022-07-26T17:03:08.356Z,21.30
2022-07-26T17:06:07.125Z,21.20
2022-07-26T17:09:04.631Z,21.20
2022-07-26T17:12:06.387Z,21.20
2022-07-26T17:15:04.375Z,21.10
2022-07-26T17:18:01.840Z,21.10
2022-07-26T17:20:59.365Z,21.08
2022-07-26T17:23:56.835Z,21.00
2022-07-26T17:26:54.321Z,20.96
2022-07-26T17:29:53.250Z,20.90
2022-07-26T17:32:50.757Z,20.82
2022-07-26T17:35:48.765Z,20.80
2022-07-26T17:38:46.885Z,20.80
2022-07-26T17:41:49.209Z,20.70
2022-07-26T17:44:46.703Z,20.70
2022-07-26T17:47:44.268Z,20.60
2022-07-26T17:50:41.762Z,20.60
2022-07-26T17:53:39.218Z,20.58
2022-07-26T17:56:36.701Z,20.50
2022-07-26T17:59:34.166Z,20.40
2022-07-26T18:02:33.611Z,20.40
2022-07-26T18:05:35.093Z,20.30
2022-07-26T18:08:34.592Z,20.20
2022-07-26T18:11:32.039Z,20.20
2022-07-26T18:14:29.508Z,20.18
2022-07-26T18:17:26.985Z,20.10
2022-07-26T18:20:24.532Z,20.00
2022-07-26T18:23:22.193Z,20.00
2022-07-26T18:26:19.988Z,19.90
2022-07-26T18:29:17.457Z,19.88
2022-07-26T18:32:15.438Z,19.80
2022-07-26T18:35:12.896Z,19.70
2022-07-26T18:38:10.388Z,19.70
2022-07-26T18:41:07.876Z,19.60
2022-07-26T18:44:05.364Z,19.60
2022-07-26T18:47:02.911Z,19.60
2022-07-26T18:50:00.412Z,19.50
2022-07-26T18:52:59.388Z,19.50
2022-07-26T18:55:57.565Z,19.50
2022-07-26T18:58:55.076Z,19.44
2022-07-26T19:01:52.630Z,19.40
2022-07-26T19:04:50.205Z,19.38
2022-07-26T19:07:47.677Z,19.34
2022-07-26T19:10:45.135Z,19.30
2022-07-26T19:13:42.978Z,19.30
2022-07-26T19:16:40.465Z,19.20
2022-07-26T19:19:37.930Z,19.20
2022-07-26T19:22:35.430Z,19.16
2022-07-26T19:25:32.918Z,19.10
2022-07-26T19:28:30.403Z,19.10
2022-07-26T19:31:27.953Z,19.10
2022-07-26T19:34:26.901Z,19.00
2022-07-26T19:37:24.378Z,19.00
2022-07-26T19:40:21.952Z,19.00
2022-07-26T19:43:19.428Z,19.00
2022-07-26T19:46:19.207Z,18.90
2022-07-26T19:49:17.343Z,18.90
2022-07-26T19:52:15.006Z,18.90
2022-07-26T19:55:12.465Z,18.90
2022-07-26T19:58:09.951Z,18.88
2022-07-26T20:01:07.461Z,18.80
2022-07-26T20:04:04.984Z,18.80
2022-07-26T20:07:02.492Z,18.80
2022-07-26T20:09:59.974Z,18.80
2022-07-26T20:12:57.453Z,18.78
2022-07-26T20:15:54.944Z,18.70
2022-07-26T20:18:52.818Z,18.70
2022-07-26T20:21:50.328Z,18.70
2022-07-26T20:24:47.806Z,18.70
2022-07-26T20:27:48.324Z,18.64
2022-07-26T20:30:48.429Z,18.60
2022-07-26T20:33:46.088Z,18.60
2022-07-26T20:36:43.572Z,18.60
2022-07-26T20:39:41.057Z,18.60
2022-07-26T20:42:40.408Z,18.60
2022-07-26T20:45:39.525Z,18.60
2022-07-26T20:48:37.083Z,18.60
2022-07-26T20:51:34.570Z,18.60
2022-07-26T20:54:32.365Z,18.60
2022-07-26T20:57:29.858Z,18.60
2022-07-26T21:00:27.393Z,18.60
2022-07-26T21:03:24.898Z,18.60
2022-07-26T21:06:22.361Z,18.60
2022-07-26T21:09:27.067Z,18.60
2022-07-26T21:12:24.533Z,18.60
2022-07-26T21:15:22.023Z,18.60
2022-07-26T21:18:19.509Z,18.60
2022-07-26T21:21:17.239Z,18.60
2022-07-26T21:24:14.719Z,18.58
2022-07-26T21:27:12.182Z,18.56
2022-07-26T21:30:09.744Z,18.54
2022-07-26T21:33:08.061Z,18.52
2022-07-26T21:36:05.635Z,18.54
2022-07-26T21:39:03.107Z,18.52
2022-07-26T21:42:00.570Z,18.56
2022-07-26T21:44:58.077Z,18.58
2022-07-26T21:47:55.572Z,18.60
2022-07-26T21:50:53.062Z,18.60
2022-07-26T21:53:50.529Z,18.60
2022-07-26T21:56:48.407Z,18.50
2022-07-26T21:59:45.887Z,18.50
2022-07-26T22:02:43.410Z,18.50
2022-07-26T22:05:42.663Z,18.50
2022-07-26T22:08:40.208Z,18.50
2022-07-26T22:11:37.693Z,18.50
2022-07-26T22:14:35.193Z,18.50
2022-07-26T22:17:32.690Z,18.50
2022-07-26T22:20:31.949Z,18.50
2022-07-26T22:23:31.141Z,18.50
2022-07-26T22:26:31.297Z,18.50
2022-07-26T22:29:39.922Z,18.46
2022-07-26T22:32:37.791Z,18.42
2022-07-26T22:35:36.356Z,18.40
2022-07-26T22:38:34.250Z,18.40
2022-07-26T22:41:32.651Z,18.40
2022-07-26T22:44:31.430Z,18.40
2022-07-26T22:47:28.900Z,18.40
2022-07-26T22:50:26.408Z,18.40
2022-07-26T22:53:23.875Z,18.40
2022-07-26T22:56:21.383Z,18.40
2022-07-26T22:59:18.888Z,18.40
2022-07-26T23:02:16.358Z,18.36
2022-07-26T23:05:13.850Z,18.30
2022-07-26T23:08:36.607Z,18.30
2022-07-26T23:11:28.800Z,18.30
2022-07-26T23:14:29.353Z,18.30
2022-07-26T23:17:26.838Z,18.30
2022-07-26T23:20:24.366Z,18.30
2022-07-26T23:23:21.816Z,18.30
2022-07-26T23:26:19.278Z,18.30
2022-07-26T23:29:16.769Z,18.24
2022-07-26T23:32:14.262Z,18.22
2022-07-26T23:35:12.954Z,18.20
2022-07-26T23:38:10.406Z,18.20
2022-07-26T23:41:07.895Z,18.20
2022-07-26T23:44:05.373Z,18.20
2022-07-26T23:47:03.045Z,18.20
2022-07-26T23:50:00.689Z,18.20
2022-07-26T23:52:58.184Z,18.20
2022-07-26T23:55:55.680Z,18.20
2022-07-26T23:58:53.151Z,18.20
